createdAt,value
2018-02-10T00:01:34.574Z,0.10
2018-02-10T00:04:03.026Z,0.00
2018-02-10T00:06:30.734Z,0.00
2018-02-10T00:08:58.394Z,-0.20
2018-02-10T00:11:26.115Z,-0.10
2018-02-10T00:13:53.782Z,-0.10
2018-02-10T00:16:22.215Z,-0.10
2018-02-10T00:18:49.918Z,-0.10
2018-02-10T00:21:17.583Z,-0.20
2018-02-10T00:23:46.055Z,-0.30
2018-02-10T00:26:13.729Z,-0.30
2018-02-10T00:28:42.195Z,-0.30
2018-02-10T00:31:10.626Z,-0.40
2018-02-10T00:33:38.334Z,-0.40
2018-02-10T00:36:06.819Z,-0.40
2018-02-10T00:38:35.334Z,-0.30
2018-02-10T00:41:02.998Z,-0.40
2018-02-10T00:43:30.710Z,-0.50
2018-02-10T00:45:59.134Z,-0.60
2018-02-10T00:48:26.834Z,-0.60
2018-02-10T00:50:54.490Z,-0.30
2018-02-10T00:53:22.198Z,-0.10
2018-02-10T00:55:49.850Z,0.10
2018-02-10T00:58:17.546Z,0.30
2018-02-10T01:00:45.206Z,0.10
2018-02-10T01:03:12.914Z,-0.20
2018-02-10T01:05:41.335Z,0.10
2018-02-10T01:08:09.029Z,0.10
2018-02-10T01:10:36.686Z,0.10
2018-02-10T01:13:04.386Z,0.30
2018-02-10T01:15:32.041Z,0.20
2018-02-10T01:17:59.750Z,-0.10
2018-02-10T01:20:27.418Z,-0.30
2018-02-10T01:22:55.124Z,-0.50
2018-02-10T01:25:22.782Z,-0.50
2018-02-10T01:27:50.494Z,-0.50
2018-02-10T01:30:18.154Z,-0.40
2018-02-10T01:32:45.818Z,-0.10
2018-02-10T01:35:13.518Z,0.10
2018-02-10T01:37:41.170Z,0.00
2018-02-10T01:40:08.877Z,-0.20
2018-02-10T01:42:36.541Z,-0.30
2018-02-10T01:45:04.291Z,-0.30
2018-02-10T01:47:31.945Z,-0.30
2018-02-10T01:50:11.657Z,-0.30
2018-02-10T01:52:39.322Z,-0.40
2018-02-10T01:55:07.019Z,-0.40
2018-02-10T01:57:34.682Z,-0.40
2018-02-10T02:00:02.385Z,-0.40
2018-02-10T02:02:30.048Z,-0.40
2018-02-10T02:04:57.752Z,-0.20
2018-02-10T02:07:25.410Z,-0.10
2018-02-10T02:09:53.106Z,0.20
2018-02-10T02:12:21.525Z,0.30
2018-02-10T02:14:49.222Z,0.30
2018-02-10T02:17:16.877Z,0.10
2018-02-10T02:19:44.573Z,0.00
2018-02-10T02:22:12.993Z,-0.20
2018-02-10T02:24:40.686Z,-0.30
2018-02-10T02:27:08.373Z,0.00
2018-02-10T02:29:36.838Z,0.40
2018-02-10T02:32:05.266Z,0.30
2018-02-10T02:34:32.966Z,0.30
2018-02-10T02:37:00.632Z,0.00
2018-02-10T02:39:29.106Z,-0.20
2018-02-10T02:41:57.533Z,-0.20
2018-02-10T02:44:25.242Z,-0.20
2018-02-10T02:46:52.910Z,-0.10
2018-02-10T02:49:21.371Z,0.30
2018-02-10T02:51:49.035Z,0.30
2018-02-10T02:54:16.754Z,0.40
2018-02-10T02:56:44.464Z,0.20
2018-02-10T02:59:12.151Z,0.00
2018-02-10T03:01:39.815Z,-0.20
2018-02-10T03:04:08.782Z,-0.20
2018-02-10T03:06:39.061Z,0.30
2018-02-10T03:09:08.098Z,0.30
2018-02-10T03:11:36.522Z,0.10
2018-02-10T03:14:04.218Z,0.10
2018-02-10T03:16:32.639Z,0.20
2018-02-10T03:19:00.329Z,0.20
2018-02-10T03:21:27.983Z,0.10
2018-02-10T03:23:55.713Z,0.00
2018-02-10T03:26:23.393Z,-0.20
2018-02-10T03:28:51.094Z,-0.30
2018-02-10T03:31:19.522Z,-0.30
2018-02-10T03:33:47.232Z,-0.40
2018-02-10T03:36:15.666Z,-0.20
2018-02-10T03:38:43.370Z,-0.20
2018-02-10T03:41:11.800Z,0.20
2018-02-10T03:43:39.555Z,0.10
2018-02-10T03:46:07.214Z,0.30
2018-02-10T03:48:34.926Z,0.40
2018-02-10T03:51:03.371Z,0.60
2018-02-10T03:53:31.070Z,0.60
2018-02-10T03:55:59.869Z,0.50
2018-02-10T03:58:27.561Z,0.50
2018-02-10T04:00:55.218Z,0.30
2018-02-10T04:03:22.920Z,0.10
2018-02-10T04:05:50.573Z,0.00
2018-02-10T04:08:18.234Z,0.10
2018-02-10T04:10:45.934Z,0.00
2018-02-10T04:13:13.595Z,0.20
2018-02-10T04:15:41.290Z,0.10
2018-02-10T04:18:08.950Z,0.20
2018-02-10T04:20:36.646Z,0.10
2018-02-10T04:23:05.070Z,0.00
2018-02-10T04:25:32.776Z,0.10
2018-02-10T04:28:01.215Z,0.30
2018-02-10T04:30:28.923Z,0.30
2018-02-10T04:32:57.352Z,0.30
2018-02-10T04:35:25.050Z,0.30
2018-02-10T04:37:53.479Z,0.10
2018-02-10T04:40:21.177Z,0.10
2018-02-10T04:42:48.833Z,0.10
2018-02-10T04:45:16.536Z,0.00
2018-02-10T04:47:44.194Z,0.00
2018-02-10T04:50:11.893Z,0.00
2018-02-10T04:52:40.447Z,0.10
2018-02-10T04:55:08.150Z,0.00
2018-02-10T04:57:35.810Z,0.00
2018-02-10T05:00:03.586Z,0.00
2018-02-10T05:02:32.014Z,0.00
2018-02-10T05:04:59.714Z,0.00
2018-02-10T05:07:27.386Z,0.00
2018-02-10T05:09:55.858Z,0.20
2018-02-10T05:12:23.526Z,0.20
2018-02-10T05:14:51.998Z,0.40
2018-02-10T05:17:20.431Z,0.50
2018-02-10T05:19:48.151Z,0.40
2018-02-10T05:22:16.576Z,0.60
2018-02-10T05:24:44.278Z,0.50
2018-02-10T05:27:12.698Z,0.40
2018-02-10T05:29:40.386Z,0.40
2018-02-10T05:32:08.043Z,0.50
2018-02-10T05:34:35.751Z,0.50
2018-02-10T05:37:03.410Z,0.50
2018-02-10T05:39:31.101Z,0.50
2018-02-10T05:41:58.754Z,0.40
2018-02-10T05:44:26.492Z,0.50
2018-02-10T05:46:54.142Z,0.50
2018-02-10T05:49:21.840Z,0.50
2018-02-10T05:51:49.489Z,0.50
2018-02-10T05:54:17.186Z,0.40
2018-02-10T05:56:44.841Z,0.40
2018-02-10T05:59:12.542Z,0.50
2018-02-10T06:01:40.194Z,0.50
2018-02-10T06:04:08.653Z,0.60
2018-02-10T06:06:36.322Z,0.60
2018-02-10T06:09:04.846Z,0.70
2018-02-10T06:11:32.512Z,0.70
2018-02-10T06:14:00.218Z,0.70
2018-02-10T06:16:28.642Z,0.60
2018-02-10T06:18:56.340Z,0.60
2018-02-10T06:21:23.994Z,0.60
2018-02-10T06:23:51.693Z,0.50
2018-02-10T06:26:19.388Z,0.50
2018-02-10T06:28:47.045Z,0.50
2018-02-10T06:31:14.755Z,0.50
2018-02-10T06:33:43.182Z,0.50
2018-02-10T06:36:10.883Z,0.50
2018-02-10T06:38:38.537Z,0.40
2018-02-10T06:41:06.239Z,0.40
2018-02-10T06:43:33.902Z,0.50
2018-02-10T06:46:01.602Z,0.70
2018-02-10T06:48:29.262Z,0.70
2018-02-10T06:50:56.967Z,0.70
2018-02-10T06:53:24.633Z,0.70
2018-02-10T06:55:52.333Z,0.90
2018-02-10T06:58:20.754Z,0.90
2018-02-10T07:00:49.223Z,0.90
2018-02-10T07:03:16.914Z,0.90
2018-02-10T07:05:44.622Z,0.80
2018-02-10T07:08:12.279Z,0.70
2018-02-10T07:10:40.017Z,0.60
2018-02-10T07:13:07.674Z,0.70
2018-02-10T07:15:35.373Z,0.60
2018-02-10T07:18:03.033Z,0.70
2018-02-10T07:20:30.730Z,0.80
2018-02-10T07:22:58.394Z,0.80
2018-02-10T07:25:26.090Z,0.80
2018-02-10T07:27:53.754Z,0.80
2018-02-10T07:30:21.450Z,0.90
2018-02-10T07:32:49.107Z,1.00
2018-02-10T07:35:17.566Z,1.10
2018-02-10T07:37:45.214Z,1.10
2018-02-10T07:40:12.917Z,1.10
2018-02-10T07:42:40.572Z,1.10
2018-02-10T07:45:08.266Z,1.00
2018-02-10T07:47:35.917Z,1.10
2018-02-10T07:50:03.629Z,1.10
2018-02-10T07:52:32.053Z,1.20
2018-02-10T07:54:59.750Z,1.20
2018-02-10T07:57:27.400Z,1.20
2018-02-10T07:59:55.107Z,1.40
2018-02-10T08:02:22.767Z,1.50
2018-02-10T08:04:50.465Z,1.40
2018-02-10T08:07:18.887Z,1.50
2018-02-10T08:09:47.383Z,1.60
2018-02-10T08:12:15.062Z,1.60
2018-02-10T08:14:42.754Z,1.80
2018-02-10T08:17:10.410Z,1.90
2018-02-10T08:19:38.118Z,1.80
2018-02-10T08:22:05.774Z,1.80
2018-02-10T08:24:33.558Z,1.80
2018-02-10T08:27:01.228Z,1.90
2018-02-10T08:29:28.915Z,2.10
2018-02-10T08:31:56.610Z,2.10
2018-02-10T08:34:24.269Z,2.00
2018-02-10T08:36:52.725Z,2.00
2018-02-10T08:39:21.150Z,2.10
2018-02-10T08:41:48.851Z,2.10
2018-02-10T08:44:16.510Z,2.10
2018-02-10T08:46:44.206Z,2.20
2018-02-10T08:49:11.853Z,2.20
2018-02-10T08:51:40.342Z,2.20
2018-02-10T08:54:07.994Z,2.20
2018-02-10T08:56:35.702Z,2.30
2018-02-10T08:59:03.371Z,2.20
2018-02-10T09:01:31.097Z,2.20
2018-02-10T09:03:58.746Z,2.20
2018-02-10T09:06:26.444Z,2.20
2018-02-10T09:08:54.118Z,2.30
2018-02-10T09:11:21.814Z,2.20
2018-02-10T09:13:49.471Z,2.30
2018-02-10T09:16:17.934Z,2.30
2018-02-10T09:18:46.356Z,2.40
2018-02-10T09:21:14.054Z,2.40
2018-02-10T09:23:41.713Z,2.40
2018-02-10T09:26:09.511Z,2.40
2018-02-10T09:28:37.163Z,2.50
2018-02-10T09:31:05.630Z,2.50
2018-02-10T09:33:34.062Z,2.50
2018-02-10T09:36:01.776Z,2.50
2018-02-10T09:38:30.202Z,2.60
2018-02-10T09:40:57.902Z,2.50
2018-02-10T09:43:26.318Z,2.50
2018-02-10T09:45:54.022Z,2.50
2018-02-10T09:48:21.678Z,2.50
2018-02-10T09:50:49.382Z,2.60
2018-02-10T09:53:17.066Z,2.70
2018-02-10T09:55:44.805Z,2.80
2018-02-10T09:58:12.467Z,2.80
2018-02-10T10:00:40.162Z,2.80
2018-02-10T10:03:07.819Z,2.80
2018-02-10T10:05:35.514Z,2.80
2018-02-10T10:08:03.947Z,2.90
2018-02-10T10:10:31.726Z,2.90
2018-02-10T10:12:59.386Z,2.90
2018-02-10T10:15:27.082Z,2.90
2018-02-10T10:17:55.502Z,2.90
2018-02-10T10:20:23.199Z,2.90
2018-02-10T10:22:50.868Z,2.90
2018-02-10T10:25:19.330Z,3.00
2018-02-10T10:27:46.990Z,3.00
2018-02-10T10:30:14.688Z,3.00
2018-02-10T10:32:42.332Z,3.10
2018-02-10T10:35:10.807Z,3.00
2018-02-10T10:37:39.238Z,3.10
2018-02-10T10:40:06.897Z,3.00
2018-02-10T10:42:35.360Z,3.20
2018-02-10T10:45:03.042Z,3.20
2018-02-10T10:47:30.734Z,3.30
2018-02-10T10:49:59.162Z,3.30
2018-02-10T10:52:26.849Z,3.30
2018-02-10T10:54:54.502Z,3.30
2018-02-10T10:57:22.312Z,3.40
2018-02-10T10:59:49.964Z,3.40
2018-02-10T11:02:18.427Z,3.40
2018-02-10T11:04:46.849Z,3.30
2018-02-10T11:07:14.546Z,3.40
2018-02-10T11:09:42.233Z,3.30
2018-02-10T11:12:10.694Z,3.30
2018-02-10T11:14:38.434Z,3.30
2018-02-10T11:17:06.127Z,3.40
2018-02-10T11:19:34.550Z,3.50
2018-02-10T11:22:02.252Z,3.50
2018-02-10T11:24:29.911Z,3.50
2018-02-10T11:26:57.611Z,3.50
2018-02-10T11:29:25.271Z,3.50
2018-02-10T11:31:52.969Z,3.60
2018-02-10T11:34:20.657Z,3.60
2018-02-10T11:36:49.126Z,3.60
2018-02-10T11:39:16.874Z,3.60
2018-02-10T11:41:44.573Z,3.60
2018-02-10T11:44:12.986Z,3.70
2018-02-10T11:46:40.678Z,3.60
2018-02-10T11:49:08.331Z,3.60
2018-02-10T11:51:36.028Z,3.60
2018-02-10T11:54:04.462Z,3.60
2018-02-10T11:56:32.198Z,3.60
2018-02-10T11:58:59.854Z,3.60
2018-02-10T12:01:27.545Z,3.60
2018-02-10T12:03:55.206Z,3.70
2018-02-10T12:06:22.916Z,3.70
2018-02-10T12:08:50.579Z,3.70
2018-02-10T12:11:18.268Z,3.80
2018-02-10T12:13:45.924Z,3.70
2018-02-10T12:16:13.625Z,3.80
2018-02-10T12:18:42.044Z,3.70
2018-02-10T12:21:09.744Z,3.70
2018-02-10T12:23:37.415Z,3.60
2018-02-10T12:26:05.130Z,3.70
2018-02-10T12:28:32.782Z,3.70
2018-02-10T12:31:00.486Z,3.70
2018-02-10T12:33:28.146Z,3.70
2018-02-10T12:35:55.838Z,3.70
2018-02-10T12:38:23.525Z,3.60
2018-02-10T12:40:51.217Z,3.50
2018-02-10T12:43:18.878Z,3.50
2018-02-10T12:45:46.576Z,3.50
2018-02-10T12:48:19.886Z,3.50
2018-02-10T12:50:47.584Z,3.50
2018-02-10T12:53:15.245Z,3.40
2018-02-10T12:55:42.947Z,3.40
2018-02-10T12:58:10.604Z,3.40
2018-02-10T13:00:38.262Z,3.50
2018-02-10T13:03:06.733Z,3.40
2018-02-10T13:05:35.149Z,3.40
2018-02-10T13:08:02.845Z,3.40
2018-02-10T13:10:30.530Z,3.40
2018-02-10T13:12:58.989Z,3.50
2018-02-10T13:15:26.650Z,3.40
2018-02-10T13:17:54.342Z,3.40
2018-02-10T13:20:21.992Z,3.40
2018-02-10T13:22:49.696Z,3.50
2018-02-10T13:25:17.350Z,3.50
2018-02-10T13:27:45.055Z,3.40
2018-02-10T13:30:13.470Z,3.40
2018-02-10T13:32:41.198Z,3.40
2018-02-10T13:35:09.614Z,3.50
2018-02-10T13:37:37.322Z,3.50
2018-02-10T13:40:05.019Z,3.50
2018-02-10T13:42:32.710Z,3.50
2018-02-10T13:45:00.380Z,3.50
2018-02-10T13:47:28.070Z,3.40
2018-02-10T13:49:56.494Z,3.40
2018-02-10T13:52:24.188Z,3.40
2018-02-10T13:54:51.850Z,3.40
2018-02-10T13:57:19.553Z,3.40
2018-02-10T13:59:47.202Z,3.40
2018-02-10T14:02:14.935Z,3.40
2018-02-10T14:04:43.359Z,3.40
2018-02-10T14:07:11.042Z,3.40
2018-02-10T14:09:38.689Z,3.30
2018-02-10T14:12:06.393Z,3.40
2018-02-10T14:14:34.051Z,3.40
2018-02-10T14:17:01.879Z,3.50
2018-02-10T14:19:29.542Z,3.60
2018-02-10T14:21:57.247Z,3.60
2018-02-10T14:24:25.690Z,3.70
2018-02-10T14:26:53.475Z,3.60
2018-02-10T14:29:21.902Z,3.60
2018-02-10T14:31:49.606Z,3.60
2018-02-10T14:34:17.271Z,3.60
2018-02-10T14:36:45.777Z,3.60
2018-02-10T14:39:13.439Z,3.60
2018-02-10T14:41:41.134Z,3.60
2018-02-10T14:44:08.790Z,3.70
2018-02-10T14:46:36.486Z,3.60
2018-02-10T14:49:04.909Z,3.70
2018-02-10T14:51:32.610Z,3.60
2018-02-10T14:54:00.262Z,3.70
2018-02-10T14:56:27.964Z,3.60
2018-02-10T14:58:55.614Z,3.60
2018-02-10T15:01:24.073Z,3.70
2018-02-10T15:03:51.733Z,3.70
2018-02-10T15:06:19.427Z,3.70
2018-02-10T15:08:47.083Z,3.70
2018-02-10T15:11:14.794Z,3.60
2018-02-10T15:13:42.450Z,3.60
2018-02-10T15:16:10.097Z,3.60
2018-02-10T15:18:37.786Z,3.60
2018-02-10T15:21:05.443Z,3.60
2018-02-10T15:23:33.172Z,3.60
2018-02-10T15:26:00.870Z,3.60
2018-02-10T15:28:28.566Z,3.50
2018-02-10T15:34:20.632Z,3.60
2018-02-10T15:36:48.318Z,3.60
2018-02-10T15:39:15.967Z,3.50
2018-02-10T15:41:44.426Z,3.50
2018-02-10T15:44:12.074Z,3.50
2018-02-10T15:46:39.790Z,3.40
2018-02-10T15:49:07.450Z,3.40
2018-02-10T15:51:35.149Z,3.40
2018-02-10T15:54:02.854Z,3.40
2018-02-10T15:56:30.550Z,3.40
2018-02-10T15:58:59.014Z,3.40
2018-02-10T16:01:27.438Z,3.40
2018-02-10T16:03:55.132Z,3.40
2018-02-10T16:06:22.830Z,3.30
2018-02-10T16:08:50.522Z,3.40
2018-02-10T16:11:18.166Z,3.40
2018-02-10T16:13:45.862Z,3.30
2018-02-10T16:16:13.514Z,3.40
2018-02-10T16:18:41.218Z,3.30
2018-02-10T16:21:09.639Z,3.30
2018-02-10T16:23:37.335Z,3.30
2018-02-10T16:26:04.987Z,3.30
2018-02-10T16:28:32.683Z,3.30
2018-02-10T16:31:00.331Z,3.20
2018-02-10T16:33:28.797Z,3.20
2018-02-10T16:35:57.208Z,3.10
2018-02-10T16:38:24.903Z,3.10
2018-02-10T16:40:53.327Z,3.10
2018-02-10T16:43:21.781Z,3.20
2018-02-10T16:45:49.438Z,3.10
2018-02-10T16:48:17.121Z,3.20
2018-02-10T16:50:45.545Z,3.10
2018-02-10T16:53:13.238Z,3.10
2018-02-10T16:55:40.888Z,3.10
2018-02-10T16:58:08.586Z,3.10
2018-02-10T17:00:36.277Z,3.20
2018-02-10T17:03:03.978Z,3.00
2018-02-10T17:05:31.641Z,3.00
2018-02-10T17:07:59.330Z,3.00
2018-02-10T17:10:27.086Z,3.00
2018-02-10T17:12:54.786Z,3.00
2018-02-10T17:15:22.445Z,3.00
2018-02-10T17:17:50.145Z,3.00
2018-02-10T17:20:18.560Z,3.00
2018-02-10T17:22:46.271Z,3.00
2018-02-10T17:25:13.925Z,2.90
2018-02-10T17:27:41.618Z,2.80
2018-02-10T17:30:10.039Z,2.80
2018-02-10T17:32:37.742Z,2.80
2018-02-10T17:35:06.168Z,3.00
2018-02-10T17:37:33.874Z,3.00
2018-02-10T17:40:01.566Z,3.10
2018-02-10T17:42:29.266Z,3.10
2018-02-10T17:44:56.928Z,3.10
2018-02-10T17:47:24.651Z,3.10
2018-02-10T17:49:52.314Z,3.10
2018-02-10T17:52:20.050Z,3.10
2018-02-10T17:54:48.472Z,3.10
2018-02-10T17:57:16.166Z,3.10
2018-02-10T17:59:43.814Z,3.00
2018-02-10T18:02:11.544Z,3.10
2018-02-10T18:04:39.194Z,3.00
2018-02-10T18:07:06.902Z,2.90
2018-02-10T18:09:34.569Z,2.90
2018-02-10T18:12:03.002Z,3.00
2018-02-10T18:14:30.698Z,3.00
2018-02-10T18:16:58.359Z,3.20
2018-02-10T18:19:26.050Z,3.20
2018-02-10T18:21:53.747Z,3.10
2018-02-10T18:24:21.794Z,3.10
2018-02-10T18:26:49.482Z,3.20
2018-02-10T18:29:17.236Z,3.10
2018-02-10T18:31:44.934Z,3.10
2018-02-10T18:34:13.434Z,3.00
2018-02-10T18:36:41.121Z,2.90
2018-02-10T18:39:08.864Z,3.00
2018-02-10T18:41:36.530Z,2.90
2018-02-10T18:44:04.245Z,3.10
2018-02-10T18:46:31.915Z,3.10
2018-02-10T18:49:00.402Z,3.10
2018-02-10T18:51:28.827Z,3.10
2018-02-10T18:53:56.662Z,3.10
2018-02-10T18:56:24.362Z,3.10
2018-02-10T18:58:52.030Z,3.10
2018-02-10T19:01:20.519Z,3.10
2018-02-10T19:03:48.186Z,3.10
2018-02-10T19:06:15.844Z,3.00
2018-02-10T19:08:43.582Z,3.00
2018-02-10T19:11:11.271Z,3.00
2018-02-10T19:13:38.942Z,3.00
2018-02-10T19:16:07.455Z,3.00
2018-02-10T19:18:35.136Z,3.00
2018-02-10T19:21:02.885Z,3.00
2018-02-10T19:26:38.560Z,2.90
2018-02-10T19:29:06.214Z,2.90
2018-02-10T19:31:34.006Z,3.00
2018-02-10T19:34:01.745Z,3.10
2018-02-10T19:36:29.451Z,3.10
2018-02-10T19:38:57.958Z,3.10
2018-02-10T19:41:25.634Z,3.10
2018-02-10T19:43:53.309Z,3.00
2018-02-10T19:46:21.044Z,3.00
2018-02-10T19:48:48.775Z,3.10
2018-02-10T19:51:17.211Z,3.20
2018-02-10T19:53:44.934Z,3.10
2018-02-10T19:56:12.618Z,3.10
2018-02-10T19:58:40.353Z,3.00
2018-02-10T20:01:08.076Z,3.00
2018-02-10T20:03:35.760Z,3.10
2018-02-10T20:06:04.330Z,3.00
2018-02-10T20:08:32.776Z,3.10
2018-02-10T20:11:00.535Z,3.10
2018-02-10T20:13:28.206Z,3.20
2018-02-10T20:15:55.950Z,3.20
2018-02-10T20:18:23.702Z,3.20
2018-02-10T20:20:51.383Z,3.10
2018-02-10T20:23:19.059Z,3.10
2018-02-10T20:25:46.788Z,3.10
2018-02-10T20:28:14.470Z,3.10
2018-02-10T20:30:42.212Z,3.00
2018-02-10T20:33:09.883Z,3.10
2018-02-10T20:35:37.619Z,3.10
2018-02-10T20:38:05.289Z,3.10
2018-02-10T20:40:33.023Z,3.00
2018-02-10T20:43:00.701Z,3.10
2018-02-10T20:45:28.392Z,3.10
2018-02-10T20:47:56.117Z,3.00
2018-02-10T20:50:23.905Z,3.00
2018-02-10T20:52:51.579Z,3.00
2018-02-10T20:55:19.266Z,2.90
2018-02-10T20:57:47.771Z,3.00
2018-02-10T21:00:15.463Z,3.00
2018-02-10T21:02:43.121Z,3.00
2018-02-10T21:05:10.835Z,3.00
2018-02-10T21:07:38.575Z,2.90
2018-02-10T21:10:07.030Z,3.00
2018-02-10T21:12:34.780Z,3.00
2018-02-10T21:15:02.471Z,3.10
2018-02-10T21:17:31.011Z,3.00
2018-02-10T21:19:58.752Z,3.00
2018-02-10T21:22:26.422Z,2.90
2018-02-10T21:24:54.138Z,3.00
2018-02-10T21:27:22.643Z,3.00
2018-02-10T21:29:50.374Z,3.00
2018-02-10T21:32:18.827Z,2.90
2018-02-10T21:34:46.521Z,2.90
2018-02-10T21:37:14.997Z,2.90
2018-02-10T21:39:43.440Z,2.90
2018-02-10T21:42:11.174Z,2.90
2018-02-10T21:44:38.833Z,2.90
2018-02-10T21:47:06.546Z,3.00
2018-02-10T21:49:34.202Z,2.90
2018-02-10T21:52:01.919Z,3.00
2018-02-10T21:54:29.589Z,2.90
2018-02-10T21:56:57.307Z,2.90
2018-02-10T21:59:24.977Z,2.90
2018-02-10T22:01:52.633Z,2.90
2018-02-10T22:04:20.350Z,2.90
2018-02-10T22:06:48.015Z,3.00
2018-02-10T22:09:15.734Z,2.90
2018-02-10T22:11:43.404Z,2.80
2018-02-10T22:14:11.126Z,2.80
2018-02-10T22:16:38.790Z,2.90
2018-02-10T22:19:06.506Z,2.90
2018-02-10T22:21:34.227Z,2.90
2018-02-10T22:24:01.886Z,2.80
2018-02-10T22:26:29.602Z,2.80
2018-02-10T22:28:57.322Z,2.70
2018-02-10T22:31:25.150Z,2.70
2018-02-10T22:33:52.823Z,2.70
2018-02-10T22:36:20.550Z,2.70
2018-02-10T22:38:49.049Z,2.70
2018-02-10T22:41:17.526Z,2.70
2018-02-10T22:43:45.190Z,2.70
2018-02-10T22:46:13.174Z,2.60
2018-02-10T22:48:40.838Z,2.60
2018-02-10T22:51:08.549Z,2.50
2018-02-10T22:53:36.242Z,2.50
2018-02-10T22:56:03.982Z,2.50
2018-02-10T22:58:32.407Z,2.30
2018-02-10T23:01:05.817Z,2.30
2018-02-10T23:03:33.487Z,2.20
2018-02-10T23:06:01.203Z,2.30
2018-02-10T23:08:28.858Z,2.20
2018-02-10T23:10:56.569Z,2.30
2018-02-10T23:13:24.234Z,2.20
2018-02-10T23:15:51.962Z,2.20
2018-02-10T23:18:19.670Z,2.10
2018-02-10T23:20:48.163Z,2.10
2018-02-10T23:23:16.590Z,2.00
2018-02-10T23:25:44.262Z,2.00
2018-02-10T23:28:11.974Z,2.10
2018-02-10T23:30:39.635Z,2.00
2018-02-10T23:33:07.352Z,2.00
2018-02-10T23:35:35.054Z,2.00
2018-02-10T23:38:02.803Z,2.10
2018-02-10T23:40:30.460Z,2.00
2018-02-10T23:42:58.974Z,1.90
2018-02-10T23:45:26.630Z,1.90
2018-02-10T23:47:54.304Z,1.90
2018-02-10T23:50:22.016Z,1.90
2018-02-10T23:52:50.442Z,2.00
2018-02-10T23:55:18.154Z,1.90
2018-02-10T23:57:45.811Z,1.90
